createdAt,value
2023-01-21T04:53:04.928Z,99789.34
2023-01-21T05:03:27.735Z,99783.91
2023-01-21T05:13:48.678Z,99786.38
2023-01-21T05:24:09.898Z,99784.38
2023-01-21T05:34:31.324Z,99778.25
2023-01-21T05:44:52.436Z,99792.38
2023-01-21T05:55:13.663Z,99796.50
2023-01-21T06:05:35.135Z,99778.28
2023-01-21T06:15:56.964Z,99795.59
2023-01-21T06:26:17.939Z,99812.50
2023-01-21T06:36:40.879Z,99810.13
2023-01-21T06:47:02.354Z,99809.69
2023-01-21T06:57:24.895Z,99802.63
2023-01-21T07:07:46.441Z,99806.84
2023-01-21T07:18:07.651Z,99845.09
2023-01-21T07:28:28.707Z,99870.56
2023-01-21T07:38:49.757Z,99887.72
2023-01-21T07:49:20.530Z,99922.19
2023-01-21T07:59:42.177Z,99930.47
2023-01-21T08:10:08.328Z,99921.66
2023-01-21T08:20:29.520Z,99925.75
2023-01-21T08:30:56.023Z,99961.03
2023-01-21T08:41:17.798Z,99962.78
2023-01-21T08:51:44.540Z,99973.06
2023-01-21T09:02:06.128Z,99989.72
2023-01-21T09:12:27.594Z,99986.31
2023-01-21T09:22:49.155Z,99991.06
2023-01-21T09:33:10.497Z,99961.47
2023-01-21T09:43:40.584Z,99971.09
2023-01-21T09:54:04.796Z,99944.94
2023-01-21T10:04:45.590Z,99972.94
2023-01-21T10:15:29.935Z,99975.88
2023-01-21T10:25:51.435Z,99965.50
2023-01-21T10:36:36.978Z,99971.22
2023-01-21T10:47:18.715Z,99984.09
2023-01-21T10:57:49.929Z,99979.91
2023-01-21T11:08:20.730Z,99987.31
2023-01-21T11:18:43.032Z,99998.78
2023-01-21T11:29:16.297Z,99986.84
2023-01-21T11:39:49.792Z,99985.84
2023-01-21T11:50:28.252Z,99998.88
2023-01-21T12:00:55.921Z,100006.94
2023-01-21T12:11:24.370Z,100025.84
2023-01-21T12:22:19.536Z,100031.09
2023-01-21T12:32:50.194Z,100046.84
2023-01-21T12:43:32.499Z,100077.47
2023-01-21T12:54:17.440Z,100124.44
2023-01-21T13:04:58.517Z,100115.31
2023-01-21T13:15:29.010Z,100111.09
2023-01-21T13:26:14.893Z,100131.09
2023-01-21T13:36:47.009Z,100127.78
2023-01-21T13:47:49.584Z,100131.75
2023-01-21T13:58:15.745Z,100162.34
2023-01-21T14:08:51.897Z,100201.66
2023-01-21T14:20:04.324Z,100214.88
2023-01-21T14:30:51.612Z,100223.56
2023-01-21T14:41:13.480Z,100245.13
2023-01-21T14:51:45.069Z,100251.78
2023-01-21T15:02:35.734Z,100255.00
2023-01-21T15:13:02.643Z,100260.84
2023-01-21T15:23:32.321Z,100275.13
2023-01-21T15:33:57.102Z,100276.72
2023-01-21T15:45:19.555Z,100290.81
2023-01-21T15:56:14.702Z,100309.22
2023-01-21T16:07:22.330Z,100323.88
2023-01-21T16:18:11.347Z,100336.34
2023-01-21T16:28:47.614Z,100364.81
2023-01-21T16:39:10.695Z,100365.41
2023-01-21T16:49:34.437Z,100384.47
2023-01-21T16:59:57.995Z,100386.22
2023-01-21T17:10:29.055Z,100405.03
2023-01-21T17:21:13.507Z,100412.97
2023-01-21T17:31:42.990Z,100432.97
2023-01-21T17:42:04.977Z,100446.13
2023-01-21T17:52:26.948Z,100451.88
2023-01-21T18:02:47.773Z,100464.53
2023-01-21T18:13:14.713Z,100470.38
2023-01-21T18:23:36.413Z,100491.09
2023-01-21T18:33:57.723Z,100507.50
2023-01-21T18:44:19.455Z,100514.97
2023-01-21T18:54:40.332Z,100517.38
2023-01-21T19:05:01.740Z,100531.22
2023-01-21T19:15:27.390Z,100554.25
2023-01-21T19:25:56.082Z,100570.31
2023-01-21T19:36:20.490Z,100569.97
2023-01-21T19:46:42.270Z,100576.63
2023-01-21T19:57:03.725Z,100586.19
2023-01-21T20:07:24.802Z,100600.69
2023-01-21T20:17:49.262Z,100609.50
2023-01-21T20:28:39.691Z,100619.03
2023-01-21T20:39:01.103Z,100633.28
2023-01-21T20:49:22.904Z,100651.31
2023-01-21T20:59:44.315Z,100667.75
2023-01-21T21:10:07.345Z,100665.72
2023-01-21T21:20:33.044Z,100674.59
2023-01-21T21:30:54.244Z,100683.69
2023-01-21T21:41:40.872Z,100690.06
2023-01-21T21:52:02.203Z,100701.59
2023-01-21T22:02:23.675Z,100697.53
2023-01-21T22:12:45.015Z,100709.28
2023-01-21T22:23:06.379Z,100724.09
2023-01-21T22:33:27.896Z,100724.56
2023-01-21T22:43:50.680Z,100728.00
2023-01-21T22:54:12.380Z,100748.03
2023-01-21T23:04:33.728Z,100756.50
2023-01-21T23:14:55.096Z,100763.78
2023-01-21T23:25:16.595Z,100773.47
2023-01-21T23:35:38.028Z,100789.50
2023-01-21T23:45:59.632Z,100807.25
2023-01-21T23:56:26.182Z,100811.13
